createdAt,value
2023-04-11T00:00:53.867Z,11.77
2023-04-11T00:05:53.574Z,14.00
2023-04-11T00:10:52.906Z,15.82
2023-04-11T00:15:55.956Z,17.13
2023-04-11T00:20:54.473Z,21.60
2023-04-11T00:25:55.966Z,19.30
2023-04-11T00:30:57.684Z,17.80
2023-04-11T00:35:58.561Z,20.65
2023-04-11T00:40:59.947Z,16.90
2023-04-11T00:46:02.106Z,18.67
2023-04-11T00:51:05.790Z,17.90
2023-04-11T00:56:04.989Z,17.67
2023-04-11T01:01:16.247Z,17.25
2023-04-11T01:06:18.244Z,16.55
2023-04-11T01:11:20.863Z,18.13
2023-04-11T01:16:22.432Z,16.27
2023-04-11T01:21:24.783Z,18.25
2023-04-11T01:26:24.015Z,20.33
2023-04-11T01:31:24.669Z,22.70
2023-04-11T01:36:23.973Z,21.95
2023-04-11T01:41:25.170Z,22.77
2023-04-11T01:46:28.087Z,23.25
2023-04-11T01:51:32.092Z,21.38
2023-04-11T01:56:35.414Z,23.38
2023-04-11T02:01:37.260Z,26.55
2023-04-11T02:06:34.782Z,25.13
2023-04-11T02:11:33.166Z,37.00
2023-04-11T02:16:34.698Z,26.88
2023-04-11T02:21:34.876Z,25.35
2023-04-11T02:26:35.373Z,29.02
2023-04-11T02:31:36.538Z,28.00
2023-04-11T02:36:34.915Z,28.02
2023-04-11T02:41:38.756Z,26.55
2023-04-11T02:51:43.245Z,27.60
2023-04-11T02:56:44.454Z,34.08
2023-04-11T03:01:45.573Z,25.70
2023-04-11T03:06:48.031Z,30.35
2023-04-11T03:11:48.234Z,28.58
2023-04-11T03:16:47.714Z,28.58
2023-04-11T03:21:48.866Z,26.75
2023-04-11T03:26:51.268Z,27.67
2023-04-11T03:31:53.524Z,35.95
2023-04-11T03:36:55.901Z,31.02
2023-04-11T03:41:58.474Z,25.77
2023-04-11T03:46:58.709Z,28.92
2023-04-11T03:52:07.802Z,27.05
2023-04-11T03:57:09.859Z,26.73
2023-04-11T04:02:21.846Z,30.25
2023-04-11T04:07:42.865Z,24.20
2023-04-11T04:12:55.764Z,26.65
2023-04-11T04:17:56.484Z,25.97
2023-04-11T04:23:08.457Z,27.58
2023-04-11T04:28:27.634Z,24.25
2023-04-11T04:33:33.339Z,22.52
2023-04-11T04:38:38.665Z,29.73
2023-04-11T04:43:42.229Z,25.08
2023-04-11T04:48:47.521Z,20.10
2023-04-11T04:53:51.216Z,19.23
2023-04-11T04:59:28.382Z,20.05
2023-04-11T05:04:43.388Z,19.33
2023-04-11T05:09:43.153Z,15.45
2023-04-11T05:15:03.560Z,17.83
2023-04-11T05:20:13.177Z,14.80
2023-04-11T05:25:35.265Z,21.33
2023-04-11T05:30:43.609Z,20.40
2023-04-11T05:35:46.046Z,18.08
2023-04-11T05:41:06.573Z,21.85
2023-04-11T05:46:44.369Z,14.27
2023-04-11T05:51:43.325Z,14.85
2023-04-11T05:56:46.439Z,16.55
2023-04-11T06:02:01.545Z,20.50
2023-04-11T06:07:07.059Z,15.70
2023-04-11T06:12:11.678Z,15.50
2023-04-11T06:17:11.215Z,13.82
2023-04-11T06:22:11.115Z,15.77
2023-04-11T06:27:12.873Z,14.57
2023-04-11T06:32:14.389Z,18.73
2023-04-11T06:37:19.583Z,13.48
2023-04-11T06:42:33.937Z,17.10
2023-04-11T06:47:38.590Z,14.88
2023-04-11T06:52:38.326Z,17.02
2023-04-11T06:57:39.475Z,16.00
2023-04-11T07:02:39.785Z,15.07
2023-04-11T07:07:45.251Z,20.00
2023-04-11T07:12:55.233Z,17.60
2023-04-11T07:17:55.804Z,16.52
2023-04-11T07:22:56.919Z,15.48
2023-04-11T07:28:15.563Z,13.77
2023-04-11T07:33:17.668Z,14.07
2023-04-11T07:38:32.820Z,12.73
2023-04-11T07:43:39.387Z,12.75
2023-04-11T07:48:37.253Z,13.18
2023-04-11T07:53:43.380Z,11.75
2023-04-11T08:04:18.072Z,13.40
2023-04-11T08:09:24.159Z,14.63
2023-04-11T08:14:22.933Z,13.77
2023-04-11T08:19:21.502Z,18.23
2023-04-11T08:24:29.021Z,13.40
2023-04-11T08:29:30.318Z,9.57
2023-04-11T08:34:34.748Z,16.88
2023-04-11T08:39:36.892Z,12.88
2023-04-11T08:44:38.410Z,18.75
2023-04-11T08:49:36.738Z,12.32
2023-04-11T08:54:36.019Z,10.95
2023-04-11T08:59:36.359Z,10.27
2023-04-11T09:04:43.294Z,15.50
2023-04-11T09:09:48.983Z,9.30
2023-04-11T09:14:50.410Z,5.93
2023-04-11T09:20:26.726Z,8.07
2023-04-11T09:25:27.503Z,6.05
2023-04-11T09:30:27.077Z,5.85
2023-04-11T09:35:29.038Z,6.97
2023-04-11T09:40:42.447Z,6.57
2023-04-11T09:45:53.549Z,6.72
2023-04-11T09:51:07.826Z,2.80
2023-04-11T09:56:12.291Z,4.93
2023-04-11T10:01:11.147Z,4.38
2023-04-11T10:06:26.769Z,3.08
2023-04-11T10:11:30.075Z,3.10
2023-04-11T10:16:33.194Z,3.67
2023-04-11T10:21:33.046Z,2.13
2023-04-11T10:26:58.027Z,3.05
2023-04-11T10:32:19.517Z,2.13
2023-04-11T10:37:33.601Z,1.90
2023-04-11T10:42:36.008Z,2.28
2023-04-11T10:47:34.413Z,2.00
2023-04-11T10:52:42.034Z,3.42
2023-04-11T10:58:06.726Z,2.92
2023-04-11T11:08:39.284Z,2.67
2023-04-11T11:13:48.080Z,3.22
2023-04-11T11:18:51.733Z,4.10
2023-04-11T11:23:59.750Z,6.15
2023-04-11T11:28:57.786Z,7.07
2023-04-11T11:34:18.478Z,10.27
2023-04-11T11:39:30.865Z,7.70
2023-04-11T11:44:31.269Z,7.43
2023-04-11T11:49:48.785Z,5.22
2023-04-11T11:54:48.368Z,5.18
2023-04-11T11:59:54.771Z,5.85
2023-04-11T12:05:00.522Z,5.75
2023-04-11T12:10:12.116Z,7.53
2023-04-11T12:15:16.193Z,7.57
2023-04-11T12:20:27.475Z,7.03
2023-04-11T12:25:31.439Z,6.63
2023-04-11T12:30:42.405Z,12.65
2023-04-11T12:35:40.466Z,7.00
2023-04-11T12:41:20.280Z,7.53
2023-04-11T12:46:36.409Z,7.90
2023-04-11T12:57:16.165Z,8.02
2023-04-11T13:02:42.075Z,10.85
2023-04-11T13:07:45.340Z,8.45
2023-04-11T13:13:05.363Z,9.05
2023-04-11T13:18:53.405Z,8.18
2023-04-11T13:29:21.616Z,9.65
2023-04-11T13:34:19.619Z,9.75
2023-04-11T13:39:30.482Z,11.60
2023-04-11T13:44:39.831Z,8.98
2023-04-11T13:49:42.467Z,8.32
2023-04-11T13:54:47.844Z,9.68
2023-04-11T13:59:49.983Z,8.32
2023-04-11T14:05:03.250Z,9.70
2023-04-11T14:10:05.558Z,8.93
2023-04-11T14:15:33.463Z,9.75
2023-04-11T14:20:38.730Z,10.27
2023-04-11T14:25:40.257Z,14.50
2023-04-11T14:30:42.558Z,11.80
2023-04-11T14:35:50.746Z,13.95
2023-04-11T14:40:52.638Z,12.02
2023-04-11T14:45:58.646Z,17.50
2023-04-11T14:51:04.818Z,21.52
2023-04-11T14:56:06.615Z,16.35
2023-04-11T15:01:04.816Z,12.60
2023-04-11T15:06:06.600Z,20.23
2023-04-11T15:11:08.309Z,15.10
2023-04-11T15:16:06.661Z,14.82
2023-04-11T15:21:05.193Z,16.60
2023-04-11T15:26:04.494Z,15.45
2023-04-11T15:31:02.916Z,18.17
2023-04-11T15:36:04.992Z,14.68
2023-04-11T15:41:03.733Z,14.13
2023-04-11T15:46:07.480Z,17.48
2023-04-11T15:51:11.336Z,19.65
2023-04-11T15:56:10.463Z,15.48
2023-04-11T16:01:21.107Z,13.73
2023-04-11T16:06:23.280Z,17.67
2023-04-11T16:11:28.163Z,15.48
2023-04-11T16:16:30.733Z,13.68
2023-04-11T16:28:00.511Z,13.25
2023-04-11T16:33:13.000Z,14.75
2023-04-11T16:38:16.469Z,16.90
2023-04-11T16:43:14.674Z,16.63
2023-04-11T16:48:15.207Z,18.25
2023-04-11T16:53:16.445Z,15.30
2023-04-11T16:58:18.368Z,14.82
2023-04-11T17:03:19.972Z,14.30
2023-04-11T17:08:18.420Z,19.73
2023-04-11T17:13:19.218Z,12.48
2023-04-11T17:18:19.903Z,12.90
2023-04-11T17:23:31.948Z,13.55
2023-04-11T17:28:41.201Z,14.95
2023-04-11T17:33:42.684Z,13.25
2023-04-11T17:38:44.074Z,14.73
2023-04-11T17:43:43.856Z,19.40
2023-04-11T17:48:45.094Z,18.15
2023-04-11T17:53:43.874Z,13.27
2023-04-11T17:58:48.851Z,12.75
2023-04-11T18:03:50.582Z,14.95
2023-04-11T18:08:51.363Z,14.10
2023-04-11T18:13:50.728Z,15.35
2023-04-11T18:18:49.536Z,15.23
2023-04-11T18:23:59.659Z,16.15
2023-04-11T18:29:03.654Z,15.77
2023-04-11T18:34:03.598Z,14.38
2023-04-11T18:39:07.419Z,16.30
2023-04-11T18:49:37.165Z,17.25
2023-04-11T18:54:44.329Z,21.08
2023-04-11T18:59:50.154Z,19.38
2023-04-11T19:04:59.709Z,20.95
2023-04-11T19:10:00.473Z,23.52
2023-04-11T19:15:02.755Z,21.10
2023-04-11T19:25:23.245Z,23.90
2023-04-11T19:30:22.189Z,21.75
2023-04-11T19:35:27.487Z,25.60
2023-04-11T19:40:28.262Z,21.55
2023-04-11T19:45:35.092Z,19.83
2023-04-11T19:50:35.159Z,24.05
2023-04-11T19:55:35.928Z,16.90
2023-04-11T20:00:38.217Z,20.15
2023-04-11T20:05:38.205Z,20.20
2023-04-11T20:10:39.463Z,17.98
2023-04-11T20:15:41.149Z,18.50
2023-04-11T20:20:40.677Z,20.13
2023-04-11T20:25:39.482Z,21.70
2023-04-11T20:30:43.580Z,23.15
2023-04-11T20:35:46.929Z,20.50
2023-04-11T20:40:52.404Z,24.57
2023-04-11T20:45:56.153Z,22.85
2023-04-11T20:51:02.087Z,15.18
2023-04-11T20:56:04.686Z,12.98
2023-04-11T21:01:06.181Z,14.00
2023-04-11T21:06:07.675Z,13.55
2023-04-11T21:11:06.538Z,13.65
2023-04-11T21:16:15.716Z,11.98
2023-04-11T21:21:14.735Z,12.45
2023-04-11T21:26:17.428Z,10.93
2023-04-11T21:31:17.637Z,12.30
2023-04-11T21:36:19.646Z,11.32
2023-04-11T21:41:20.809Z,13.27
2023-04-11T21:46:23.502Z,17.85
2023-04-11T21:51:26.874Z,17.05
2023-04-11T21:56:26.218Z,17.48
2023-04-11T22:01:29.297Z,20.63
2023-04-11T22:06:33.375Z,19.90
2023-04-11T22:11:42.759Z,20.13
2023-04-11T22:16:44.420Z,18.58
2023-04-11T22:21:48.736Z,16.50
2023-04-11T22:31:52.461Z,17.77
2023-04-11T22:36:57.947Z,16.20
2023-04-11T22:41:56.765Z,17.33
2023-04-11T22:47:25.454Z,17.08
2023-04-11T22:52:28.421Z,15.65
2023-04-11T22:57:29.284Z,17.35
2023-04-11T23:02:32.060Z,14.35
2023-04-11T23:07:34.942Z,14.90
2023-04-11T23:12:35.020Z,15.32
2023-04-11T23:17:38.098Z,15.52
2023-04-11T23:22:37.365Z,15.77
2023-04-11T23:27:39.066Z,15.50
2023-04-11T23:32:47.533Z,16.48
2023-04-11T23:37:50.129Z,16.27
2023-04-11T23:42:51.724Z,16.33
2023-04-11T23:47:54.841Z,15.70
2023-04-11T23:52:57.651Z,16.33
2023-04-11T23:57:58.691Z,14.55
